Aérodrome :
LOGIN :

S'inscrire | Disclaimer

   EN    FR    IT 

 










Légende :    VFR   VFR Marginal   IFR   IFR Intensif   IFR Très Intensif
Visi : 
Plafond : 
>= 8 km
>= 3000ft
5 à 8 km
1000 à 3000 ft
1500m à 5 km
500 à 1000 ft
800 à 1500m
200 à 500 ft
< 800m
< 200 ft
Symboles :   Orages  Brouillard  Fortes neiges  Fortes précipitations  Vent > 20 kt
SIGMETs :   Divers  Orages  Givrage  Turbulence  Onde Orograph.  Cendres Volcan.







- Altitude de l'aérodrome : 755 ft
- Code IATA : KSC


LZKZ - Kosice

DERNIER METAR :
  • 190330Z 01011KT CAVOK 01/M08 Q1016

METARs EXPIRÉS :
  • 190300Z 01013KT CAVOK 01/M08 Q1016
  • 190230Z 01013KT CAVOK 01/M08 Q1016
  • 190200Z 01014KT CAVOK 01/M08 Q1016
  • 190130Z 36016KT CAVOK 01/M09 Q1016
  • 190100Z 01016KT CAVOK 01/M09 Q1017

TAF TAF LZKZ
Valide du 19 à 00h jusqu'au 20 à 00h UTC


182300Z 1900/2000 01016KT 9999 BKN035 OVC045
TEMPO 1907/1914 4000 -SNRA SCT015 OVC027
BECMG 1915/1917 SCT030 BKN048
Pas de NOTAMs connus pour ce terrain.



MET'MAP, la Météo Aéronautique d'un coup d'oeil ! - Copyright ORBIFLY Décembre 2007 - Disclaimer

ORBIFLY MET'MAP TEAM :

Programmation & Développement : Alexandra Zaïnal
Conception & Développement : Baudouin d'Aumeries
Co-Programmation & Développement : Marc-Olivier Méhu
Soutien technique & logistique : Manuel Goepfert

Contact : metmap@orbifly.com




SOURCES & CREDITS :

   NOAA